TJNR/NRR METAR and TAF weather

Enter ICAO airport designator
Station Type Date Time Source
TJNR METAR 2022/11/30 09:53 UTC NOAA

TJNR 300953Z AUTO 06008KT 10SM FEW028 25/21 A2993 RMK AO2 SLP133 T02500206


Station Type Date Time Source
TJNR Decoded METAR 2022/11/30 09:53 UTC NOAA

ROOSEVELT ROADS PUERTO RICO, PR, United States (TJNR) 18-15N 65-38W 10M
Nov 30, 2022 - 04:53 AM EST / 2022.11.30 0953 UTC
Wind: from the ENE (060 degrees) at 9 MPH (8 KT):0
Visibility: 10 mile(s):0
Sky conditions: mostly clear
Temperature: 77.0 F (25.0 C)
Dew Point: 69.1 F (20.6 C)
Relative Humidity: 76%
Pressure (altimeter): 29.93 in. Hg (1013 hPa)
ob: TJNR 300953Z AUTO 06008KT 10SM FEW028 25/21 A2993 RMK AO2 SLP133 T02500206
cycle: 10

Station Type Date Time Source
TJNR TAF UTC NOAA

Error!

Example: see airport list